Portada
METAR-TAF:

METAR-TAF

Aeroports :

Shell Mera, Equador

latitud: 01-30-19S, longitud: 078-03-46W, altitud: 1056 m

Observació

L'informe es va fer fa 26 minuts, a les 17:00 UTC
Vent 5 kt del Est/Nord-Est
Temperatura 23°C
Humitat 78%
Pressió 1018 hPa
Visibilitat 10 km o més
Núvols disperses a una alçada de 2300 ft
Cel ennuvolat a una alçada de 10000 ft
xàfecs en les proximitats

METAR: SESM 071700Z 07005KT 9999 VCSH SCT023 BKN100 23/19 Q1018 RMK A3007

Hora: 12:26 (17:26 UTC)


TAF: manca

Observacions i pronòstics meteorològics de més de 4000 aeroports (METAR i TAF).

Les estacions disponibles són els punts grocs i vermells al mapa.

Posi el ratolí al punt desitjat per veure el nom de l'estació.

Feu clic per veure les observacions i els pronòstics meteorològics.

Per canviar el mapa: feu clic els botons verds amb una creu de color negre per apropar; al botó verd amb un guió per allunyar la imatge; o en les fletxes verdes per a mapes adjacents.


METAR-TAF: